VXP684 KRDU-KROC
Flight info
| Callsign | VXP684 |
|---|---|
| Flight time | N/A |
| Altitude | 33000 |
| Route | OXFRD5 CARML BBDOL STPBY AML Q227 STUBN GIBBE |
| Aircraft | B738/M-SDE2E3FGHIRWXY/LB1 |
Departure
| Time | 2026-05-06 05:26 |
|---|---|
| Airport | Raleigh-Durham International Airport (KRDU) |
Arrival
| Time | N/A |
|---|---|
| Airport | Frederick Douglass Greater Rochester International Airport (KROC) |
| Time | Latitude | Longitude | Altitude | Speed | Heading |
|---|---|---|---|---|---|
| 2026-05-06 05:12 | 35.87335 | -78.79012 | 434 ft | 0 kts | 315° |
| 2026-05-06 05:20 | 35.87322 | -78.78997 | 431 ft | 4 kts | 317° |
| 2026-05-06 05:20 | 35.87302 | -78.78975 | 425 ft | 4 kts | 328° |
| 2026-05-06 05:20 | 35.87282 | -78.78963 | 434 ft | 1 kts | 345° |
| 2026-05-06 05:21 | 35.87281 | -78.78963 | 434 ft | 0 kts | 345° |
| 2026-05-06 05:22 | 35.87284 | -78.78964 | 423 ft | 1 kts | 348° |
| 2026-05-06 05:22 | 35.87291 | -78.78951 | 422 ft | 4 kts | 72° |
| 2026-05-06 05:22 | 35.87308 | -78.78888 | 426 ft | 11 kts | 68° |
| 2026-05-06 05:23 | 35.87378 | -78.78797 | 434 ft | 18 kts | 45° |
| 2026-05-06 05:23 | 35.87474 | -78.78679 | 434 ft | 20 kts | 45° |
| 2026-05-06 05:23 | 35.87664 | -78.78443 | 430 ft | 19 kts | 45° |
| 2026-05-06 05:24 | 35.87755 | -78.78332 | 432 ft | 18 kts | 45° |
| 2026-05-06 05:24 | 35.87842 | -78.78224 | 428 ft | 18 kts | 45° |
| 2026-05-06 05:24 | 35.87927 | -78.78119 | 427 ft | 17 kts | 45° |
| 2026-05-06 05:24 | 35.87981 | -78.78038 | 435 ft | 8 kts | 85° |
| 2026-05-06 05:25 | 35.87945 | -78.77992 | 436 ft | 7 kts | 137° |
| 2026-05-06 05:25 | 35.87888 | -78.77976 | 431 ft | 17 kts | 215° |
| 2026-05-06 05:25 | 35.87624 | -78.78301 | 432 ft | 91 kts | 225° |
| 2026-05-06 05:25 | 35.87017 | -78.79041 | 457 ft | 150 kts | 221° |
| 2026-05-06 05:26 | 35.86221 | -78.79946 | 1026 ft | 163 kts | 221° |
| 2026-05-06 05:26 | 35.85398 | -78.80965 | 1793 ft | 171 kts | 224° |
| 2026-05-06 05:26 | 35.84648 | -78.82158 | 2387 ft | 191 kts | 247° |
| 2026-05-06 05:26 | 35.84700 | -78.83904 | 2620 ft | 228 kts | 290° |
| 2026-05-06 05:27 | 35.85859 | -78.85406 | 2874 ft | 265 kts | 328° |
| 2026-05-06 05:27 | 35.87739 | -78.85960 | 3277 ft | 289 kts | 352° |
| 2026-05-06 05:27 | 35.89748 | -78.86240 | 4150 ft | 290 kts | 359° |
| 2026-05-06 05:27 | 35.91700 | -78.85670 | 5105 ft | 292 kts | 24° |
| 2026-05-06 05:28 | 35.93532 | -78.84559 | 5974 ft | 295 kts | 26° |
| 2026-05-06 05:28 | 35.95381 | -78.83404 | 6773 ft | 300 kts | 25° |
| 2026-05-06 05:28 | 35.97260 | -78.82261 | 7571 ft | 303 kts | 24° |
| 2026-05-06 05:28 | 35.99185 | -78.81132 | 8328 ft | 308 kts | 23° |
| 2026-05-06 05:29 | 36.01143 | -78.80014 | 9122 ft | 312 kts | 23° |
| 2026-05-06 05:29 | 36.03138 | -78.78897 | 9847 ft | 317 kts | 22° |
| 2026-05-06 05:29 | 36.05168 | -78.77776 | 10512 ft | 326 kts | 21° |
| 2026-05-06 05:29 | 36.07319 | -78.76601 | 10706 ft | 350 kts | 21° |
| 2026-05-06 05:30 | 36.09616 | -78.75351 | 10883 ft | 372 kts | 21° |
| 2026-05-06 05:30 | 36.12012 | -78.74053 | 11164 ft | 388 kts | 21° |
| 2026-05-06 05:30 | 36.14505 | -78.72699 | 11727 ft | 394 kts | 21° |
| 2026-05-06 05:30 | 36.17009 | -78.71336 | 12517 ft | 393 kts | 21° |
| 2026-05-06 05:31 | 36.19519 | -78.69971 | 13202 ft | 396 kts | 21° |
| 2026-05-06 05:31 | 36.22056 | -78.68593 | 13799 ft | 400 kts | 21° |
| 2026-05-06 05:31 | 36.24619 | -78.67200 | 14428 ft | 404 kts | 21° |
| 2026-05-06 05:31 | 36.27202 | -78.65791 | 15088 ft | 408 kts | 21° |
| 2026-05-06 05:32 | 36.29802 | -78.64373 | 15791 ft | 410 kts | 20° |
| 2026-05-06 05:32 | 36.32424 | -78.62945 | 16465 ft | 413 kts | 20° |
| 2026-05-06 05:32 | 36.35065 | -78.61506 | 17101 ft | 416 kts | 20° |
| 2026-05-06 05:32 | 36.37771 | -78.60227 | 17682 ft | 417 kts | 13° |
| 2026-05-06 05:33 | 36.40567 | -78.59267 | 18277 ft | 418 kts | 11° |
| 2026-05-06 05:33 | 36.43389 | -78.58348 | 18868 ft | 421 kts | 11° |
| 2026-05-06 05:33 | 36.46226 | -78.57383 | 19465 ft | 423 kts | 11° |
| 2026-05-06 05:33 | 36.49066 | -78.56387 | 20044 ft | 426 kts | 11° |
| 2026-05-06 05:34 | 36.51924 | -78.55368 | 20598 ft | 428 kts | 12° |
| 2026-05-06 05:34 | 36.54793 | -78.54337 | 21124 ft | 431 kts | 11° |
| 2026-05-06 05:34 | 36.57677 | -78.53299 | 21649 ft | 433 kts | 11° |
| 2026-05-06 05:34 | 36.60575 | -78.52255 | 22150 ft | 434 kts | 11° |
| 2026-05-06 05:35 | 36.63485 | -78.51207 | 22602 ft | 437 kts | 11° |
| 2026-05-06 05:35 | 36.66415 | -78.50152 | 23042 ft | 439 kts | 11° |
| 2026-05-06 05:35 | 36.69363 | -78.49090 | 23464 ft | 442 kts | 11° |
| 2026-05-06 05:35 | 36.72322 | -78.48024 | 23880 ft | 444 kts | 11° |
| 2026-05-06 05:36 | 36.75264 | -78.46792 | 24264 ft | 452 kts | 20° |
| 2026-05-06 05:36 | 36.77987 | -78.44729 | 24633 ft | 461 kts | 28° |
| 2026-05-06 05:36 | 36.80624 | -78.42529 | 24970 ft | 464 kts | 28° |
| 2026-05-06 05:36 | 36.83347 | -78.40244 | 25314 ft | 467 kts | 28° |
| 2026-05-06 05:37 | 36.86053 | -78.37988 | 25672 ft | 469 kts | 28° |
| 2026-05-06 05:37 | 36.88740 | -78.35769 | 26035 ft | 470 kts | 28° |
| 2026-05-06 05:37 | 36.91478 | -78.33525 | 26370 ft | 472 kts | 27° |
| 2026-05-06 05:37 | 36.94270 | -78.31251 | 26679 ft | 474 kts | 27° |
| 2026-05-06 05:38 | 36.97043 | -78.28996 | 26969 ft | 477 kts | 27° |
| 2026-05-06 05:38 | 36.99830 | -78.26727 | 27265 ft | 479 kts | 27° |
| 2026-05-06 05:38 | 37.02630 | -78.24446 | 27563 ft | 481 kts | 27° |
| 2026-05-06 05:38 | 37.05436 | -78.22156 | 27863 ft | 483 kts | 27° |
| 2026-05-06 05:39 | 37.08253 | -78.19854 | 28143 ft | 484 kts | 27° |
| 2026-05-06 05:39 | 37.11081 | -78.17541 | 28380 ft | 487 kts | 27° |
| 2026-05-06 05:39 | 37.13921 | -78.15217 | 28715 ft | 487 kts | 27° |
| 2026-05-06 05:39 | 37.16746 | -78.12900 | 29160 ft | 484 kts | 27° |
| 2026-05-06 05:40 | 37.19558 | -78.10591 | 29615 ft | 482 kts | 27° |
| 2026-05-06 05:40 | 37.22363 | -78.08289 | 29979 ft | 481 kts | 27° |
| 2026-05-06 05:40 | 37.25130 | -78.06020 | 30309 ft | 482 kts | 27° |
| 2026-05-06 05:40 | 37.27930 | -78.03717 | 30733 ft | 480 kts | 27° |
| 2026-05-06 05:41 | 37.30711 | -78.01424 | 31191 ft | 476 kts | 26° |
| 2026-05-06 05:41 | 37.33472 | -77.99148 | 31634 ft | 473 kts | 26° |
| 2026-05-06 05:41 | 37.36226 | -77.96922 | 32122 ft | 467 kts | 22° |
| 2026-05-06 05:41 | 37.39131 | -77.95281 | 32540 ft | 452 kts | 11° |
| 2026-05-06 05:42 | 37.42092 | -77.94028 | 32947 ft | 447 kts | 9° |
| 2026-05-06 05:42 | 37.45052 | -77.92834 | 32976 ft | 447 kts | 9° |
| 2026-05-06 05:42 | 37.50948 | -77.90349 | 32986 ft | 447 kts | 10° |
| 2026-05-06 05:43 | 37.56803 | -77.87742 | 32991 ft | 446 kts | 11° |
| 2026-05-06 05:43 | 37.62692 | -77.85947 | 33000 ft | 424 kts | 352° |
| 2026-05-06 05:44 | 37.68355 | -77.87071 | 32977 ft | 404 kts | 333° |
| 2026-05-06 05:44 | 37.73501 | -77.89859 | 32987 ft | 403 kts | 330° |
| 2026-05-06 05:45 | 37.78658 | -77.92699 | 32979 ft | 406 kts | 331° |
| 2026-05-06 05:45 | 37.83882 | -77.95496 | 32971 ft | 410 kts | 331° |
| 2026-05-06 05:46 | 37.89323 | -77.97809 | 32962 ft | 423 kts | 346° |
| 2026-05-06 05:46 | 37.95320 | -77.97375 | 32955 ft | 447 kts | 6° |
| 2026-05-06 05:47 | 38.01183 | -77.94532 | 32964 ft | 457 kts | 13° |
| 2026-05-06 05:47 | 38.07044 | -77.91429 | 32962 ft | 455 kts | 13° |
| 2026-05-06 05:48 | 38.12896 | -77.88374 | 32957 ft | 453 kts | 13° |
| 2026-05-06 05:48 | 38.18736 | -77.85375 | 32961 ft | 453 kts | 13° |
| 2026-05-06 05:49 | 38.24575 | -77.82386 | 32953 ft | 452 kts | 13° |
| 2026-05-06 05:49 | 38.30400 | -77.79399 | 32957 ft | 451 kts | 13° |
| 2026-05-06 05:50 | 38.36224 | -77.76410 | 32948 ft | 451 kts | 13° |
| 2026-05-06 05:50 | 38.42036 | -77.73421 | 32942 ft | 450 kts | 13° |
| 2026-05-06 05:51 | 38.47844 | -77.70428 | 32948 ft | 450 kts | 13° |
| 2026-05-06 05:51 | 38.53655 | -77.67430 | 32942 ft | 451 kts | 13° |
| 2026-05-06 05:52 | 38.58890 | -77.64720 | 32930 ft | 452 kts | 13° |